createdAt,value
2023-09-29T00:00:10.000Z,0
2023-09-29T00:01:27.000Z,0
2023-09-29T00:02:43.000Z,0
2023-09-29T00:04:00.000Z,0
2023-09-29T00:05:16.000Z,0
2023-09-29T00:06:33.000Z,0
2023-09-29T00:07:49.000Z,0
2023-09-29T00:09:06.000Z,0
2023-09-29T00:10:22.000Z,0
2023-09-29T00:11:39.000Z,0
2023-09-29T00:12:55.000Z,0
2023-09-29T00:14:12.000Z,0
2023-09-29T00:15:28.000Z,0
2023-09-29T00:16:44.000Z,0
2023-09-29T00:18:01.000Z,0
2023-09-29T00:19:17.000Z,0
2023-09-29T00:20:34.000Z,0
2023-09-29T00:21:50.000Z,0
2023-09-29T00:23:07.000Z,0
2023-09-29T00:24:23.000Z,0
2023-09-29T00:25:40.000Z,0
2023-09-29T00:26:57.000Z,0
2023-09-29T00:28:13.000Z,0
2023-09-29T00:29:30.000Z,0
2023-09-29T00:30:46.000Z,0
2023-09-29T00:32:03.000Z,0
2023-09-29T00:34:35.000Z,0
2023-09-29T00:35:52.000Z,0
2023-09-29T00:37:08.000Z,0
2023-09-29T00:38:25.000Z,0
2023-09-29T00:39:41.000Z,0
2023-09-29T00:40:58.000Z,0
2023-09-29T00:42:14.000Z,0
2023-09-29T00:43:31.000Z,0
2023-09-29T00:44:47.000Z,0
2023-09-29T00:47:20.000Z,0
2023-09-29T00:48:37.000Z,0
2023-09-29T00:49:53.000Z,0
2023-09-29T00:52:26.000Z,0
2023-09-29T00:53:42.000Z,0
2023-09-29T00:54:58.000Z,0
2023-09-29T00:56:14.000Z,0
2023-09-29T00:57:31.000Z,0
2023-09-29T00:58:47.000Z,0
2023-09-29T01:00:04.000Z,0
2023-09-29T01:01:20.000Z,0
2023-09-29T01:02:37.000Z,0
2023-09-29T01:03:53.000Z,0
2023-09-29T01:05:10.000Z,0
2023-09-29T01:06:26.000Z,0
2023-09-29T01:07:41.000Z,0
2023-09-29T01:08:58.000Z,0
2023-09-29T01:10:15.000Z,0
2023-09-29T01:11:31.000Z,0
2023-09-29T01:12:48.000Z,0
2023-09-29T01:14:04.000Z,0
2023-09-29T01:15:21.000Z,0
2023-09-29T01:16:37.000Z,0
2023-09-29T01:17:54.000Z,0
2023-09-29T01:20:27.000Z,0
2023-09-29T01:21:43.000Z,0
2023-09-29T01:23:00.000Z,0
2023-09-29T01:24:16.000Z,0
2023-09-29T01:25:32.000Z,0
2023-09-29T01:26:49.000Z,0
2023-09-29T01:29:22.000Z,0
2023-09-29T01:30:38.000Z,0
2023-09-29T01:31:54.000Z,0
2023-09-29T01:33:10.000Z,0
2023-09-29T01:34:27.000Z,0
2023-09-29T01:35:43.000Z,0
2023-09-29T01:37:00.000Z,0
2023-09-29T01:38:16.000Z,0
2023-09-29T01:39:33.000Z,0
2023-09-29T01:40:49.000Z,0
2023-09-29T01:42:06.000Z,0
2023-09-29T01:43:22.000Z,0
2023-09-29T01:44:38.000Z,0
2023-09-29T01:45:54.000Z,0
2023-09-29T01:47:11.000Z,0
2023-09-29T01:48:27.000Z,0
2023-09-29T01:49:44.000Z,0
2023-09-29T01:52:17.000Z,0
2023-09-29T01:53:33.000Z,0
2023-09-29T01:56:06.000Z,0
2023-09-29T01:57:23.000Z,0
2023-09-29T01:58:39.000Z,0
2023-09-29T01:59:55.000Z,0
2023-09-29T02:01:11.000Z,0
2023-09-29T02:02:28.000Z,0
2023-09-29T02:03:44.000Z,0
2023-09-29T02:06:17.000Z,0
2023-09-29T02:07:34.000Z,0
2023-09-29T02:10:07.000Z,0
2023-09-29T02:11:23.000Z,0
2023-09-29T02:12:40.000Z,0
2023-09-29T02:13:56.000Z,0
2023-09-29T02:15:12.000Z,0
2023-09-29T02:16:28.000Z,0
2023-09-29T02:17:45.000Z,0
2023-09-29T02:19:01.000Z,0
2023-09-29T02:20:18.000Z,0
2023-09-29T02:21:34.000Z,0
2023-09-29T02:22:51.000Z,0
2023-09-29T02:24:07.000Z,0
2023-09-29T02:25:24.000Z,0
2023-09-29T02:26:40.000Z,0
2023-09-29T02:27:56.000Z,0
2023-09-29T02:29:12.000Z,0
2023-09-29T02:30:29.000Z,0
2023-09-29T02:33:02.000Z,0
2023-09-29T02:34:18.000Z,0
2023-09-29T02:35:35.000Z,0
2023-09-29T02:36:51.000Z,0
2023-09-29T02:38:08.000Z,0
2023-09-29T02:39:25.000Z,0
2023-09-29T02:40:41.000Z,0
2023-09-29T02:41:58.000Z,0
2023-09-29T02:43:14.000Z,0
2023-09-29T02:44:30.000Z,0
2023-09-29T02:45:46.000Z,0
2023-09-29T02:47:03.000Z,0
2023-09-29T02:48:20.000Z,0
2023-09-29T02:50:53.000Z,0
2023-09-29T02:52:09.000Z,0
2023-09-29T02:53:24.000Z,0
2023-09-29T02:54:41.000Z,0
2023-09-29T02:55:57.000Z,0
2023-09-29T02:57:14.000Z,0
2023-09-29T02:58:30.000Z,0
2023-09-29T02:59:47.000Z,0
2023-09-29T03:01:04.000Z,0
2023-09-29T03:02:20.000Z,0
2023-09-29T03:03:37.000Z,0
2023-09-29T03:04:53.000Z,0
2023-09-29T03:06:08.000Z,0
2023-09-29T03:07:25.000Z,0
2023-09-29T03:08:41.000Z,0
2023-09-29T03:09:57.000Z,0
2023-09-29T03:11:14.000Z,0
2023-09-29T03:12:30.000Z,0
2023-09-29T03:13:47.000Z,0
2023-09-29T03:15:03.000Z,0
2023-09-29T03:16:20.000Z,0
2023-09-29T03:18:52.000Z,0
2023-09-29T03:20:08.000Z,0
2023-09-29T03:21:25.000Z,0
2023-09-29T03:22:41.000Z,0
2023-09-29T03:23:58.000Z,0
2023-09-29T03:25:14.000Z,0
2023-09-29T03:26:31.000Z,0
2023-09-29T03:27:47.000Z,0
2023-09-29T03:29:04.000Z,0
2023-09-29T03:30:20.000Z,0
2023-09-29T03:31:37.000Z,0
2023-09-29T03:32:53.000Z,0
2023-09-29T03:34:09.000Z,0
2023-09-29T03:35:25.000Z,0
2023-09-29T03:36:42.000Z,0
2023-09-29T03:37:58.000Z,0
2023-09-29T03:39:15.000Z,0
2023-09-29T03:40:31.000Z,0
2023-09-29T03:43:04.000Z,0
2023-09-29T03:44:21.000Z,0
2023-09-29T03:45:38.000Z,0
2023-09-29T03:46:54.000Z,0
2023-09-29T03:48:11.000Z,0
2023-09-29T03:49:27.000Z,0
2023-09-29T03:50:43.000Z,0
2023-09-29T03:51:59.000Z,0
2023-09-29T03:53:16.000Z,0
2023-09-29T03:54:33.000Z,0
2023-09-29T03:55:49.000Z,0
2023-09-29T03:57:06.000Z,0
2023-09-29T03:58:22.000Z,0
2023-09-29T03:59:39.000Z,0
2023-09-29T04:00:55.000Z,0
2023-09-29T04:02:12.000Z,0
2023-09-29T04:03:28.000Z,0
2023-09-29T04:04:45.000Z,0
2023-09-29T04:06:01.000Z,0
2023-09-29T04:07:17.000Z,0
2023-09-29T04:08:34.000Z,0
2023-09-29T04:09:50.000Z,0
2023-09-29T04:11:07.000Z,0
2023-09-29T04:12:23.000Z,0
2023-09-29T04:13:40.000Z,0
2023-09-29T04:14:56.000Z,0
2023-09-29T04:16:13.000Z,0
2023-09-29T04:17:30.000Z,0
2023-09-29T04:18:46.000Z,0
2023-09-29T04:20:03.000Z,0
2023-09-29T04:21:19.000Z,0
2023-09-29T04:22:36.000Z,0
2023-09-29T04:23:51.000Z,0
2023-09-29T04:25:08.000Z,0
2023-09-29T04:26:25.000Z,0
2023-09-29T04:27:41.000Z,0
2023-09-29T04:28:58.000Z,0
2023-09-29T04:30:14.000Z,0
2023-09-29T04:31:31.000Z,0
2023-09-29T04:32:47.000Z,0
2023-09-29T04:34:04.000Z,0
2023-09-29T04:35:20.000Z,0
2023-09-29T04:36:37.000Z,0
2023-09-29T04:37:53.000Z,0
2023-09-29T04:39:10.000Z,0
2023-09-29T04:40:26.000Z,0
2023-09-29T04:41:42.000Z,0
2023-09-29T04:42:59.000Z,0
2023-09-29T04:45:32.000Z,0
2023-09-29T04:46:48.000Z,0
2023-09-29T04:48:05.000Z,0
2023-09-29T04:49:21.000Z,0
2023-09-29T04:50:38.000Z,0
2023-09-29T04:51:55.000Z,0
2023-09-29T04:53:11.000Z,0
2023-09-29T04:54:28.000Z,0
2023-09-29T04:55:44.000Z,0
2023-09-29T04:57:00.000Z,0
2023-09-29T04:58:17.000Z,0
2023-09-29T04:59:33.000Z,0
2023-09-29T05:00:50.000Z,0
2023-09-29T05:02:06.000Z,0
2023-09-29T05:03:23.000Z,0
2023-09-29T05:04:39.000Z,0
2023-09-29T05:05:56.000Z,0
2023-09-29T05:07:12.000Z,0
2023-09-29T05:08:29.000Z,0
2023-09-29T05:09:45.000Z,0
2023-09-29T05:11:02.000Z,0
2023-09-29T05:12:18.000Z,0
2023-09-29T05:13:34.000Z,0
2023-09-29T05:14:51.000Z,0
2023-09-29T05:16:07.000Z,0
2023-09-29T05:17:24.000Z,0
2023-09-29T05:18:40.000Z,5
2023-09-29T05:19:57.000Z,5
2023-09-29T05:21:13.000Z,5
2023-09-29T05:22:30.000Z,5
2023-09-29T05:23:47.000Z,5
2023-09-29T05:25:03.000Z,11
2023-09-29T05:26:20.000Z,11
2023-09-29T05:27:36.000Z,11
2023-09-29T05:28:53.193Z,11
2023-09-29T05:30:08.000Z,11
2023-09-29T05:31:25.000Z,16
2023-09-29T05:32:42.000Z,22
2023-09-29T05:33:58.000Z,22
2023-09-29T05:35:15.000Z,28
2023-09-29T05:36:31.000Z,33
2023-09-29T05:37:48.000Z,33
2023-09-29T05:39:04.000Z,33
2023-09-29T05:40:21.000Z,33
2023-09-29T05:41:37.000Z,33
2023-09-29T05:42:54.000Z,33
2023-09-29T05:44:10.000Z,39
2023-09-29T05:45:27.000Z,39
2023-09-29T05:46:43.000Z,39
2023-09-29T05:47:59.000Z,45
2023-09-29T05:49:16.000Z,45
2023-09-29T05:50:32.000Z,45
2023-09-29T05:51:49.000Z,39
2023-09-29T05:53:05.000Z,39
2023-09-29T05:54:22.000Z,39
2023-09-29T05:55:39.000Z,39
2023-09-29T05:56:55.000Z,45
2023-09-29T05:58:12.000Z,45
2023-09-29T05:59:28.000Z,50
2023-09-29T06:00:45.000Z,56
2023-09-29T06:02:01.000Z,67
2023-09-29T06:03:18.000Z,73
2023-09-29T06:04:34.000Z,84
2023-09-29T06:05:50.000Z,101
2023-09-29T06:07:07.000Z,123
2023-09-29T06:08:23.000Z,146
2023-09-29T06:09:40.000Z,163
2023-09-29T06:10:56.000Z,185
2023-09-29T06:12:13.000Z,213
2023-09-29T06:13:29.000Z,236
2023-09-29T06:14:46.000Z,253
2023-09-29T06:16:02.000Z,264
2023-09-29T06:17:19.000Z,270
2023-09-29T06:18:35.000Z,264
2023-09-29T06:19:52.000Z,258
2023-09-29T06:21:08.000Z,264
2023-09-29T06:22:24.000Z,264
2023-09-29T06:23:41.000Z,270
2023-09-29T06:24:57.000Z,281
2023-09-29T06:26:14.000Z,292
2023-09-29T06:27:30.000Z,303
2023-09-29T06:28:47.000Z,309
2023-09-29T06:30:04.000Z,303
2023-09-29T06:31:20.000Z,298
2023-09-29T06:32:37.000Z,298
2023-09-29T06:35:10.000Z,298
2023-09-29T06:36:26.000Z,309
2023-09-29T06:37:42.000Z,315
2023-09-29T06:38:59.000Z,331
2023-09-29T06:40:15.000Z,393
2023-09-29T06:41:32.000Z,393
2023-09-29T06:42:48.000Z,939
2023-09-29T06:44:05.000Z,410
2023-09-29T06:45:21.000Z,365
2023-09-29T06:46:38.000Z,348
2023-09-29T06:47:54.000Z,326
2023-09-29T06:49:11.000Z,315
2023-09-29T06:50:27.000Z,309
2023-09-29T06:51:44.000Z,309
2023-09-29T06:53:01.000Z,320
2023-09-29T06:54:17.000Z,337
2023-09-29T06:55:33.000Z,354
2023-09-29T06:56:49.000Z,365
2023-09-29T06:58:06.000Z,382
2023-09-29T06:59:23.000Z,405
2023-09-29T07:03:12.000Z,461
2023-09-29T07:04:29.000Z,472
2023-09-29T07:05:45.000Z,483
2023-09-29T07:07:02.000Z,506
2023-09-29T07:08:18.000Z,528
2023-09-29T07:09:35.000Z,545
2023-09-29T07:10:51.000Z,551
2023-09-29T07:12:07.000Z,573
2023-09-29T07:13:24.000Z,596
2023-09-29T07:14:40.000Z,630
2023-09-29T07:15:57.000Z,663
2023-09-29T07:17:13.000Z,669
2023-09-29T07:18:30.000Z,680
2023-09-29T07:19:46.000Z,691
2023-09-29T07:21:03.000Z,731
2023-09-29T07:22:19.000Z,776
2023-09-29T07:23:36.000Z,804
2023-09-29T07:24:53.000Z,798
2023-09-29T07:26:08.000Z,770
2023-09-29T07:27:25.000Z,748
2023-09-29T07:28:41.000Z,765
2023-09-29T07:29:58.000Z,798
2023-09-29T07:31:15.000Z,826
2023-09-29T07:32:31.000Z,849
2023-09-29T07:33:48.000Z,838
2023-09-29T07:35:04.000Z,821
2023-09-29T07:36:21.000Z,804
2023-09-29T07:37:37.000Z,793
2023-09-29T07:38:54.000Z,787
2023-09-29T07:40:10.000Z,781
2023-09-29T07:41:27.000Z,781
2023-09-29T07:42:43.000Z,776
2023-09-29T07:43:59.000Z,776
2023-09-29T07:45:16.000Z,776
2023-09-29T07:46:32.000Z,793
2023-09-29T07:47:49.000Z,810
2023-09-29T07:49:05.000Z,826
2023-09-29T07:50:22.000Z,843
2023-09-29T07:51:38.000Z,866
2023-09-29T07:52:55.000Z,911
2023-09-29T07:54:11.000Z,978
2023-09-29T07:56:45.000Z,1113
2023-09-29T07:58:01.000Z,1203
2023-09-29T07:59:18.000Z,1254
2023-09-29T08:00:33.000Z,1271
2023-09-29T08:01:50.000Z,1321
2023-09-29T08:03:07.000Z,1338
2023-09-29T08:04:23.000Z,1456
2023-09-29T08:05:40.000Z,2306
2023-09-29T08:06:56.000Z,2784
2023-09-29T08:08:13.000Z,2098
2023-09-29T08:09:29.000Z,1676
2023-09-29T08:10:46.000Z,1350
2023-09-29T08:12:02.000Z,1327
2023-09-29T08:13:19.000Z,1580
2023-09-29T08:14:35.000Z,2289
2023-09-29T08:15:52.000Z,2570
2023-09-29T08:17:08.000Z,2548
2023-09-29T08:18:24.000Z,2626
2023-09-29T08:19:41.000Z,2958
2023-09-29T08:20:57.000Z,2902
2023-09-29T08:22:14.000Z,2874
2023-09-29T08:23:30.000Z,2964
2023-09-29T08:24:47.000Z,3065
2023-09-29T08:26:04.000Z,3088
2023-09-29T08:27:20.000Z,2216
2023-09-29T08:28:37.000Z,1681
2023-09-29T08:31:10.000Z,1721
2023-09-29T08:32:26.000Z,1676
2023-09-29T08:34:59.000Z,2857
2023-09-29T08:36:15.000Z,2210
2023-09-29T08:37:32.000Z,1698
2023-09-29T08:38:48.000Z,2480
2023-09-29T08:40:05.000Z,3318
2023-09-29T08:41:21.000Z,2430
2023-09-29T08:42:38.000Z,2598
2023-09-29T08:43:54.000Z,2019
2023-09-29T08:45:11.000Z,1800
2023-09-29T08:46:27.000Z,1743
2023-09-29T08:47:44.000Z,1951
2023-09-29T08:49:00.000Z,1901
2023-09-29T08:50:16.000Z,1878
2023-09-29T08:51:33.000Z,1822
2023-09-29T08:52:49.000Z,1833
2023-09-29T08:54:06.000Z,1755
2023-09-29T08:55:22.000Z,1625
2023-09-29T08:56:39.000Z,1563
2023-09-29T08:57:55.000Z,1530
2023-09-29T08:59:12.000Z,1535
2023-09-29T09:00:29.000Z,1513
2023-09-29T09:03:02.000Z,1490
2023-09-29T09:06:51.000Z,1485
2023-09-29T09:08:07.000Z,1434
2023-09-29T09:09:23.000Z,1423
2023-09-29T09:10:39.000Z,1451
2023-09-29T09:13:13.000Z,1513
2023-09-29T09:14:29.000Z,1507
2023-09-29T09:15:46.000Z,1468
2023-09-29T09:17:02.000Z,1406
2023-09-29T09:18:19.000Z,1366
2023-09-29T09:19:35.000Z,1305
2023-09-29T09:20:52.000Z,1321
2023-09-29T09:22:08.000Z,1350
2023-09-29T09:23:25.000Z,1299
2023-09-29T09:24:41.000Z,1192
2023-09-29T09:25:57.000Z,1153
2023-09-29T09:27:14.000Z,1181
2023-09-29T09:28:30.000Z,1282
2023-09-29T09:29:47.000Z,1215
2023-09-29T09:31:03.000Z,1215
2023-09-29T09:32:20.000Z,1113
2023-09-29T09:33:36.000Z,1136
2023-09-29T09:34:52.000Z,1788
2023-09-29T09:36:08.000Z,3285
2023-09-29T09:37:25.000Z,3431
2023-09-29T09:38:41.000Z,3487
2023-09-29T09:39:58.000Z,3318
2023-09-29T09:41:14.000Z,3375
2023-09-29T09:42:31.000Z,3459
2023-09-29T09:43:47.000Z,3526
2023-09-29T09:46:20.000Z,3301
2023-09-29T09:47:37.000Z,3245
2023-09-29T09:48:53.000Z,3425
2023-09-29T09:50:10.000Z,3363
2023-09-29T09:51:27.000Z,3543
2023-09-29T09:52:43.000Z,4050
2023-09-29T09:53:59.000Z,3780
2023-09-29T09:55:15.000Z,2486
2023-09-29T09:56:32.000Z,1980
2023-09-29T09:57:49.000Z,2019
2023-09-29T09:59:05.000Z,2193
2023-09-29T10:00:22.000Z,1901
2023-09-29T10:01:38.000Z,1811
2023-09-29T10:02:55.000Z,1721
2023-09-29T10:04:11.000Z,1738
2023-09-29T10:05:28.000Z,2441
2023-09-29T10:06:44.000Z,2098
2023-09-29T10:08:01.000Z,2936
2023-09-29T10:09:17.000Z,2570
2023-09-29T10:10:33.000Z,3920
2023-09-29T10:13:06.000Z,1811
2023-09-29T10:14:23.000Z,2143
2023-09-29T10:15:39.000Z,2891
2023-09-29T10:16:56.000Z,3864
2023-09-29T10:18:12.000Z,3960
2023-09-29T10:19:29.000Z,3723
2023-09-29T10:20:45.000Z,3718
2023-09-29T10:22:02.000Z,4168
2023-09-29T10:23:19.000Z,3633
2023-09-29T10:24:35.000Z,3256
2023-09-29T10:25:52.000Z,3015
2023-09-29T10:27:07.000Z,4190
2023-09-29T10:28:24.000Z,2992
2023-09-29T10:29:41.000Z,2317
2023-09-29T10:30:57.000Z,3898
2023-09-29T10:32:14.000Z,3661
2023-09-29T10:33:30.000Z,3780
2023-09-29T10:34:47.000Z,4050
2023-09-29T10:37:20.000Z,3436
2023-09-29T10:38:36.000Z,3549
2023-09-29T10:39:53.000Z,3735
2023-09-29T10:41:09.000Z,1755
2023-09-29T10:42:26.000Z,1856
2023-09-29T10:43:42.000Z,2171
2023-09-29T10:44:58.000Z,3504
2023-09-29T10:46:15.000Z,3650
2023-09-29T10:47:31.000Z,3363
2023-09-29T10:48:48.000Z,1355
2023-09-29T10:50:04.000Z,1102
2023-09-29T10:51:21.000Z,1051
2023-09-29T10:52:37.000Z,967
2023-09-29T10:53:54.000Z,933
2023-09-29T10:55:11.000Z,939
2023-09-29T10:56:27.000Z,939
2023-09-29T10:57:44.000Z,945
2023-09-29T10:59:00.000Z,821
2023-09-29T11:00:16.000Z,725
2023-09-29T11:01:32.000Z,765
2023-09-29T11:02:49.000Z,849
2023-09-29T11:04:06.000Z,894
2023-09-29T11:05:22.000Z,916
2023-09-29T11:06:39.000Z,888
2023-09-29T11:07:55.000Z,798
2023-09-29T11:09:12.000Z,697
2023-09-29T11:10:28.000Z,658
2023-09-29T11:11:45.000Z,658
2023-09-29T11:13:01.000Z,708
2023-09-29T11:14:18.000Z,900
2023-09-29T11:15:34.000Z,1040
2023-09-29T11:16:50.000Z,1063
2023-09-29T11:18:07.000Z,1080
2023-09-29T11:19:23.000Z,1158
2023-09-29T11:20:40.000Z,1271
2023-09-29T11:21:56.000Z,1344
2023-09-29T11:23:13.000Z,1237
2023-09-29T11:24:29.000Z,1113
2023-09-29T11:25:46.000Z,1085
2023-09-29T11:27:03.000Z,1119
2023-09-29T11:28:19.000Z,2238
2023-09-29T11:29:36.000Z,1215
2023-09-29T11:30:52.000Z,1164
2023-09-29T11:32:09.000Z,1141
2023-09-29T11:33:24.000Z,1389
2023-09-29T11:35:58.000Z,1231
2023-09-29T11:37:14.000Z,1220
2023-09-29T11:39:47.000Z,1383
2023-09-29T11:41:04.000Z,1395
2023-09-29T11:42:20.000Z,1597
2023-09-29T11:43:36.000Z,1890
2023-09-29T11:46:09.000Z,2396
2023-09-29T11:47:25.000Z,1918
2023-09-29T11:48:41.000Z,1923
2023-09-29T11:49:57.000Z,1895
2023-09-29T11:51:14.000Z,2137
2023-09-29T11:52:30.000Z,1620
2023-09-29T11:53:47.000Z,1350
2023-09-29T11:55:04.000Z,1276
2023-09-29T11:56:20.000Z,1096
2023-09-29T11:57:37.000Z,1192
2023-09-29T11:58:53.000Z,1181
2023-09-29T12:00:09.000Z,1507
2023-09-29T12:02:41.000Z,1468
2023-09-29T12:03:58.000Z,1327
2023-09-29T12:05:14.000Z,1282
2023-09-29T12:06:31.000Z,1243
2023-09-29T12:07:47.000Z,1209
2023-09-29T12:09:04.000Z,1215
2023-09-29T12:10:21.000Z,1215
2023-09-29T12:11:37.000Z,1158
2023-09-29T12:12:54.000Z,1243
2023-09-29T12:14:10.000Z,1428
2023-09-29T12:15:27.000Z,1580
2023-09-29T12:16:43.000Z,1839
2023-09-29T12:17:59.000Z,1400
2023-09-29T12:19:16.000Z,1631
2023-09-29T12:20:32.000Z,1636
2023-09-29T12:21:49.000Z,1935
2023-09-29T12:23:05.000Z,2002
2023-09-29T12:24:22.000Z,1923
2023-09-29T12:25:38.000Z,1800
2023-09-29T12:26:55.000Z,1873
2023-09-29T12:28:11.000Z,1788
2023-09-29T12:29:28.000Z,1620
2023-09-29T12:30:44.000Z,1850
2023-09-29T12:32:01.000Z,2013
2023-09-29T12:33:17.000Z,1839
2023-09-29T12:34:33.000Z,1822
2023-09-29T12:35:50.000Z,1816
2023-09-29T12:37:06.000Z,2216
2023-09-29T12:38:23.000Z,1597
2023-09-29T12:39:39.000Z,1501
2023-09-29T12:40:56.000Z,1428
2023-09-29T12:42:12.000Z,1586
2023-09-29T12:43:29.000Z,1636
2023-09-29T12:44:46.000Z,1620
2023-09-29T12:46:02.000Z,1738
2023-09-29T12:47:19.000Z,2266
2023-09-29T12:48:35.000Z,2430
2023-09-29T12:49:52.000Z,2694
2023-09-29T12:51:08.000Z,2677
2023-09-29T12:52:24.000Z,2598
2023-09-29T12:53:41.000Z,2598
2023-09-29T12:54:57.000Z,2441
2023-09-29T12:56:14.000Z,2047
2023-09-29T12:57:30.000Z,1912
2023-09-29T12:58:47.000Z,1805
2023-09-29T13:00:03.000Z,2598
2023-09-29T13:01:20.000Z,1878
2023-09-29T13:02:36.000Z,1895
2023-09-29T13:03:53.000Z,2497
2023-09-29T13:05:09.000Z,1985
2023-09-29T13:06:26.000Z,2514
2023-09-29T13:07:42.000Z,1935
2023-09-29T13:08:58.000Z,2413
2023-09-29T13:10:15.000Z,1963
2023-09-29T13:11:31.000Z,2379
2023-09-29T13:12:48.000Z,2323
2023-09-29T13:14:04.000Z,2205
2023-09-29T13:15:21.000Z,2199
2023-09-29T13:16:38.000Z,1845
2023-09-29T13:17:54.000Z,2463
2023-09-29T13:19:11.000Z,2306
2023-09-29T13:20:27.000Z,2238
2023-09-29T13:21:44.000Z,2261
2023-09-29T13:23:00.000Z,2300
2023-09-29T13:24:17.000Z,2553
2023-09-29T13:25:33.000Z,2525
2023-09-29T13:26:49.565Z,2340
2023-09-29T13:28:06.000Z,2306
2023-09-29T13:29:22.000Z,2463
2023-09-29T13:30:39.000Z,1586
2023-09-29T13:31:55.000Z,1299
2023-09-29T13:33:12.000Z,1125
2023-09-29T13:34:28.000Z,956
2023-09-29T13:35:45.000Z,888
2023-09-29T13:37:01.000Z,900
2023-09-29T13:38:18.000Z,933
2023-09-29T13:39:34.000Z,877
2023-09-29T13:40:51.000Z,759
2023-09-29T13:42:07.000Z,669
2023-09-29T13:43:23.000Z,607
2023-09-29T13:44:40.000Z,545
2023-09-29T13:45:56.000Z,540
2023-09-29T13:47:13.000Z,562
2023-09-29T13:48:29.000Z,601
2023-09-29T13:49:46.000Z,635
2023-09-29T13:51:03.000Z,635
2023-09-29T13:52:19.000Z,630
2023-09-29T13:53:36.000Z,641
2023-09-29T13:54:52.000Z,635
2023-09-29T13:56:09.000Z,641
2023-09-29T13:57:25.000Z,663
2023-09-29T13:58:41.000Z,669
2023-09-29T13:59:58.000Z,663
2023-09-29T14:01:14.000Z,663
2023-09-29T14:02:31.000Z,641
2023-09-29T14:03:47.000Z,613
2023-09-29T14:05:04.000Z,646
2023-09-29T14:06:20.000Z,686
2023-09-29T14:07:37.000Z,708
2023-09-29T14:08:53.000Z,686
2023-09-29T14:10:10.000Z,641
2023-09-29T14:11:26.000Z,618
2023-09-29T14:12:43.000Z,585
2023-09-29T14:13:59.000Z,556
2023-09-29T14:15:15.000Z,517
2023-09-29T14:17:48.000Z,421
2023-09-29T14:19:05.000Z,393
2023-09-29T14:20:21.000Z,371
2023-09-29T14:21:38.000Z,376
2023-09-29T14:22:54.000Z,376
2023-09-29T14:24:11.000Z,354
2023-09-29T14:25:28.000Z,331
2023-09-29T14:26:44.000Z,331
2023-09-29T14:28:01.000Z,331
2023-09-29T14:29:17.000Z,320
2023-09-29T14:30:34.000Z,315
2023-09-29T14:31:50.000Z,315
2023-09-29T14:33:06.000Z,320
2023-09-29T14:34:23.000Z,326
2023-09-29T14:35:39.000Z,354
2023-09-29T14:36:56.000Z,376
2023-09-29T14:38:12.000Z,348
2023-09-29T14:39:29.000Z,343
2023-09-29T14:40:45.000Z,360
2023-09-29T14:42:02.000Z,410
2023-09-29T14:43:18.000Z,511
2023-09-29T14:44:35.000Z,697
2023-09-29T14:45:51.000Z,781
2023-09-29T14:47:08.000Z,967
2023-09-29T14:48:24.000Z,911
2023-09-29T14:50:57.000Z,691
2023-09-29T14:52:13.000Z,562
2023-09-29T14:53:30.000Z,450
2023-09-29T14:54:46.000Z,371
2023-09-29T14:56:03.000Z,343
2023-09-29T14:57:19.000Z,348
2023-09-29T14:58:36.000Z,354
2023-09-29T14:59:53.000Z,360
2023-09-29T15:01:09.000Z,365
2023-09-29T15:02:26.000Z,393
2023-09-29T15:03:42.000Z,399
2023-09-29T15:04:58.000Z,410
2023-09-29T15:06:15.000Z,405
2023-09-29T15:07:31.000Z,382
2023-09-29T15:08:48.000Z,365
2023-09-29T15:10:04.000Z,348
2023-09-29T15:11:21.000Z,343
2023-09-29T15:12:37.000Z,365
2023-09-29T15:13:54.000Z,382
2023-09-29T15:15:10.000Z,388
2023-09-29T15:16:27.000Z,399
2023-09-29T15:17:43.000Z,444
2023-09-29T15:19:00.000Z,444
2023-09-29T15:20:16.000Z,433
2023-09-29T15:21:32.000Z,444
2023-09-29T15:22:49.000Z,495
2023-09-29T15:24:05.000Z,568
2023-09-29T15:25:22.000Z,933
2023-09-29T15:26:38.000Z,1299
2023-09-29T15:27:55.000Z,1254
2023-09-29T15:29:11.000Z,703
2023-09-29T15:30:28.000Z,646
2023-09-29T15:31:45.000Z,624
2023-09-29T15:33:01.000Z,613
2023-09-29T15:34:18.000Z,585
2023-09-29T15:36:51.000Z,483
2023-09-29T15:38:06.000Z,444
2023-09-29T15:40:40.000Z,388
2023-09-29T15:41:56.000Z,348
2023-09-29T15:43:13.000Z,320
2023-09-29T15:44:29.000Z,315
2023-09-29T15:45:46.000Z,326
2023-09-29T15:47:02.000Z,326
2023-09-29T15:48:19.000Z,303
2023-09-29T15:49:35.000Z,298
2023-09-29T15:50:52.000Z,337
2023-09-29T15:52:08.000Z,331
2023-09-29T15:53:25.000Z,320
2023-09-29T15:55:57.000Z,292
2023-09-29T15:57:14.000Z,303
2023-09-29T15:58:30.000Z,303
2023-09-29T15:59:45.000Z,292
2023-09-29T16:01:02.000Z,275
2023-09-29T16:02:19.000Z,253
2023-09-29T16:03:35.000Z,236
2023-09-29T16:04:52.000Z,247
2023-09-29T16:06:08.000Z,241
2023-09-29T16:07:25.000Z,247
2023-09-29T16:08:41.000Z,247
2023-09-29T16:09:58.000Z,174
2023-09-29T16:11:14.000Z,157
2023-09-29T16:12:29.000Z,146
2023-09-29T16:13:46.000Z,140
2023-09-29T16:15:03.000Z,140
2023-09-29T16:16:19.000Z,146
2023-09-29T16:17:36.000Z,135
2023-09-29T16:18:52.000Z,129
2023-09-29T16:20:09.000Z,123
2023-09-29T16:21:25.000Z,118
2023-09-29T16:22:42.000Z,118
2023-09-29T16:23:58.000Z,112
2023-09-29T16:25:15.000Z,95
2023-09-29T16:26:31.000Z,84
2023-09-29T16:27:48.000Z,84
2023-09-29T16:29:04.000Z,95
2023-09-29T16:30:21.000Z,95
2023-09-29T16:31:37.000Z,101
2023-09-29T16:32:53.000Z,101
2023-09-29T16:34:10.000Z,106
2023-09-29T16:35:26.000Z,118
2023-09-29T16:36:43.000Z,112
2023-09-29T16:37:59.000Z,106
2023-09-29T16:39:16.000Z,95
2023-09-29T16:40:32.000Z,90
2023-09-29T16:41:49.000Z,84
2023-09-29T16:43:06.000Z,84
2023-09-29T16:44:22.000Z,78
2023-09-29T16:45:39.000Z,78
2023-09-29T16:46:55.000Z,78
2023-09-29T16:48:11.000Z,78
2023-09-29T16:49:27.000Z,78
2023-09-29T16:50:44.000Z,73
2023-09-29T16:52:01.000Z,56
2023-09-29T16:53:17.000Z,45
2023-09-29T16:54:34.000Z,33
2023-09-29T16:55:50.000Z,22
2023-09-29T16:57:07.000Z,16
2023-09-29T16:58:23.000Z,11
2023-09-29T16:59:40.000Z,11
2023-09-29T17:00:56.000Z,11
2023-09-29T17:02:13.000Z,5
2023-09-29T17:03:29.000Z,5
2023-09-29T17:04:45.000Z,5
2023-09-29T17:06:02.000Z,5
2023-09-29T17:07:18.000Z,5
2023-09-29T17:08:35.000Z,5
2023-09-29T17:09:51.000Z,5
2023-09-29T17:11:08.000Z,0
2023-09-29T17:12:24.000Z,5
2023-09-29T17:13:41.000Z,5
2023-09-29T17:14:57.000Z,0
2023-09-29T17:16:14.000Z,0
2023-09-29T17:17:31.000Z,0
2023-09-29T17:18:47.000Z,0
2023-09-29T17:20:04.000Z,0
2023-09-29T17:21:19.000Z,0
2023-09-29T17:22:36.000Z,0
2023-09-29T17:23:53.000Z,0
2023-09-29T17:25:09.000Z,0
2023-09-29T17:26:26.000Z,0
2023-09-29T17:27:42.000Z,0
2023-09-29T17:28:59.000Z,0
2023-09-29T17:30:15.000Z,0
2023-09-29T17:31:32.000Z,0
2023-09-29T17:32:48.000Z,0
2023-09-29T17:34:05.000Z,0
2023-09-29T17:35:21.000Z,0
2023-09-29T17:36:38.000Z,0
2023-09-29T17:37:54.000Z,0
2023-09-29T17:39:10.000Z,0
2023-09-29T17:40:27.000Z,0
2023-09-29T17:41:43.000Z,0
2023-09-29T17:43:00.000Z,0
2023-09-29T17:44:16.000Z,0
2023-09-29T17:45:33.000Z,0
2023-09-29T17:46:49.000Z,0
2023-09-29T17:48:06.000Z,0
2023-09-29T17:49:22.000Z,0
2023-09-29T17:50:39.000Z,0
2023-09-29T17:51:56.000Z,0
2023-09-29T17:54:29.000Z,0
2023-09-29T17:55:44.000Z,0
2023-09-29T17:57:01.000Z,0
2023-09-29T17:58:18.000Z,0
2023-09-29T17:59:34.000Z,0
2023-09-29T18:00:51.000Z,0
2023-09-29T18:02:07.000Z,0
2023-09-29T18:03:24.000Z,0
2023-09-29T18:04:40.000Z,0
2023-09-29T18:05:57.000Z,0
2023-09-29T18:07:13.000Z,0
2023-09-29T18:08:30.000Z,0
2023-09-29T18:09:46.000Z,0
2023-09-29T18:11:03.000Z,0
2023-09-29T18:12:19.000Z,0
2023-09-29T18:13:35.000Z,0
2023-09-29T18:14:52.000Z,0
2023-09-29T18:16:08.000Z,0
2023-09-29T18:17:25.000Z,0
2023-09-29T18:18:41.000Z,0
2023-09-29T18:19:58.000Z,0
2023-09-29T18:21:14.000Z,0
2023-09-29T18:22:31.000Z,0
2023-09-29T18:23:48.000Z,0
2023-09-29T18:25:04.000Z,0
2023-09-29T18:26:21.000Z,0
2023-09-29T18:27:37.000Z,0
2023-09-29T18:28:53.000Z,0
2023-09-29T18:30:09.000Z,0
2023-09-29T18:31:26.000Z,0
2023-09-29T18:32:43.000Z,0
2023-09-29T18:33:59.000Z,0
2023-09-29T18:35:16.000Z,0
2023-09-29T18:36:32.000Z,0
2023-09-29T18:37:49.000Z,0
2023-09-29T18:39:05.000Z,0